sensor_id;sensor_type;location;lat;lon;timestamp;temperature;humidity
23729;DHT22;12045;60.214;24.724;2023-08-21T00:02:25;13.70;99.90
23729;DHT22;12045;60.214;24.724;2023-08-21T00:04:55;13.70;99.90
23729;DHT22;12045;60.214;24.724;2023-08-21T00:07:22;13.70;99.90
23729;DHT22;12045;60.214;24.724;2023-08-21T00:09:50;13.70;99.90
23729;DHT22;12045;60.214;24.724;2023-08-21T00:12:18;13.70;99.90
23729;DHT22;12045;60.214;24.724;2023-08-21T00:14:45;13.70;99.90
23729;DHT22;12045;60.214;24.724;2023-08-21T00:17:13;13.70;99.90
23729;DHT22;12045;60.214;24.724;2023-08-21T00:19:41;13.60;99.90
23729;DHT22;12045;60.214;24.724;2023-08-21T00:22:08;13.60;99.90
23729;DHT22;12045;60.214;24.724;2023-08-21T00:24:35;13.60;99.90
23729;DHT22;12045;60.214;24.724;2023-08-21T00:27:03;13.50;99.90
23729;DHT22;12045;60.214;24.724;2023-08-21T00:29:31;13.40;99.90
23729;DHT22;12045;60.214;24.724;2023-08-21T00:31:58;13.40;99.90
23729;DHT22;12045;60.214;24.724;2023-08-21T00:34:26;13.50;99.90
23729;DHT22;12045;60.214;24.724;2023-08-21T00:36:53;13.40;99.90
23729;DHT22;12045;60.214;24.724;2023-08-21T00:39:21;13.40;99.90
23729;DHT22;12045;60.214;24.724;2023-08-21T00:41:49;13.40;99.90
23729;DHT22;12045;60.214;24.724;2023-08-21T00:44:16;13.40;99.90
23729;DHT22;12045;60.214;24.724;2023-08-21T00:46:44;13.40;99.90
23729;DHT22;12045;60.214;24.724;2023-08-21T00:49:11;13.40;99.90
23729;DHT22;12045;60.214;24.724;2023-08-21T00:51:39;13.40;99.90
23729;DHT22;12045;60.214;24.724;2023-08-21T00:54:07;13.40;99.90
23729;DHT22;12045;60.214;24.724;2023-08-21T00:56:35;13.40;99.90
23729;DHT22;12045;60.214;24.724;2023-08-21T00:59:02;13.40;99.90
23729;DHT22;12045;60.214;24.724;2023-08-21T01:01:30;13.40;99.90
23729;DHT22;12045;60.214;24.724;2023-08-21T01:03:58;13.50;99.90
23729;DHT22;12045;60.214;24.724;2023-08-21T01:06:26;13.50;99.90
23729;DHT22;12045;60.214;24.724;2023-08-21T01:14:36;13.60;99.90
23729;DHT22;12045;60.214;24.724;2023-08-21T01:17:07;13.50;99.90
23729;DHT22;12045;60.214;24.724;2023-08-21T01:19:41;13.50;99.90
23729;DHT22;12045;60.214;24.724;2023-08-21T01:22:09;13.40;99.90
23729;DHT22;12045;60.214;24.724;2023-08-21T01:24:37;13.40;99.90
23729;DHT22;12045;60.214;24.724;2023-08-21T01:27:04;13.40;99.90
23729;DHT22;12045;60.214;24.724;2023-08-21T01:29:33;13.40;99.90
23729;DHT22;12045;60.214;24.724;2023-08-21T01:32:13;13.40;99.90
23729;DHT22;12045;60.214;24.724;2023-08-21T01:34:44;13.40;99.90
23729;DHT22;12045;60.214;24.724;2023-08-21T01:37:13;13.50;99.90
23729;DHT22;12045;60.214;24.724;2023-08-21T01:39:41;13.50;99.90
23729;DHT22;12045;60.214;24.724;2023-08-21T01:42:09;13.50;99.90
23729;DHT22;12045;60.214;24.724;2023-08-21T01:44:37;13.60;99.90
23729;DHT22;12045;60.214;24.724;2023-08-21T01:47:04;13.60;99.90
23729;DHT22;12045;60.214;24.724;2023-08-21T01:49:32;13.70;99.90
23729;DHT22;12045;60.214;24.724;2023-08-21T01:52:00;13.70;99.90
23729;DHT22;12045;60.214;24.724;2023-08-21T01:54:27;13.80;99.90
23729;DHT22;12045;60.214;24.724;2023-08-21T01:56:55;13.80;99.90
23729;DHT22;12045;60.214;24.724;2023-08-21T01:59:24;13.70;99.90
23729;DHT22;12045;60.214;24.724;2023-08-21T02:01:52;13.80;99.90
23729;DHT22;12045;60.214;24.724;2023-08-21T02:04:21;13.80;99.90
23729;DHT22;12045;60.214;24.724;2023-08-21T02:06:48;13.90;99.90
23729;DHT22;12045;60.214;24.724;2023-08-21T02:09:16;14.00;99.90
23729;DHT22;12045;60.214;24.724;2023-08-21T02:11:44;14.00;99.90
23729;DHT22;12045;60.214;24.724;2023-08-21T02:14:12;14.00;99.90
23729;DHT22;12045;60.214;24.724;2023-08-21T02:16:40;13.90;99.90
23729;DHT22;12045;60.214;24.724;2023-08-21T02:19:08;13.90;99.90
23729;DHT22;12045;60.214;24.724;2023-08-21T02:21:35;13.90;99.90
23729;DHT22;12045;60.214;24.724;2023-08-21T02:24:03;13.90;99.90
23729;DHT22;12045;60.214;24.724;2023-08-21T02:26:31;14.00;99.90
23729;DHT22;12045;60.214;24.724;2023-08-21T02:28:58;14.10;99.90
23729;DHT22;12045;60.214;24.724;2023-08-21T02:31:26;14.20;99.90
23729;DHT22;12045;60.214;24.724;2023-08-21T02:33:54;14.30;99.90
23729;DHT22;12045;60.214;24.724;2023-08-21T02:36:21;14.40;99.90
23729;DHT22;12045;60.214;24.724;2023-08-21T02:38:49;14.40;99.90
23729;DHT22;12045;60.214;24.724;2023-08-21T02:41:17;14.40;99.90
23729;DHT22;12045;60.214;24.724;2023-08-21T02:43:45;14.40;99.90
23729;DHT22;12045;60.214;24.724;2023-08-21T02:46:13;14.30;99.90
23729;DHT22;12045;60.214;24.724;2023-08-21T02:48:40;14.20;99.90
23729;DHT22;12045;60.214;24.724;2023-08-21T02:51:08;14.20;99.90
23729;DHT22;12045;60.214;24.724;2023-08-21T02:53:35;14.10;99.90
23729;DHT22;12045;60.214;24.724;2023-08-21T02:56:03;14.10;99.90
23729;DHT22;12045;60.214;24.724;2023-08-21T02:58:30;14.20;99.90
23729;DHT22;12045;60.214;24.724;2023-08-21T03:00:58;14.30;99.90
23729;DHT22;12045;60.214;24.724;2023-08-21T03:03:27;14.30;99.90
23729;DHT22;12045;60.214;24.724;2023-08-21T03:05:55;14.40;99.90
23729;DHT22;12045;60.214;24.724;2023-08-21T03:08:23;14.50;99.90
23729;DHT22;12045;60.214;24.724;2023-08-21T03:10:50;14.50;99.90
23729;DHT22;12045;60.214;24.724;2023-08-21T03:13:18;14.40;99.90
23729;DHT22;12045;60.214;24.724;2023-08-21T03:15:46;14.40;99.90
23729;DHT22;12045;60.214;24.724;2023-08-21T03:18:14;14.30;99.90
23729;DHT22;12045;60.214;24.724;2023-08-21T03:20:46;14.30;99.90
23729;DHT22;12045;60.214;24.724;2023-08-21T03:23:13;14.20;99.90
23729;DHT22;12045;60.214;24.724;2023-08-21T03:25:41;14.20;99.90
23729;DHT22;12045;60.214;24.724;2023-08-21T03:28:09;14.20;99.90
23729;DHT22;12045;60.214;24.724;2023-08-21T03:30:39;14.20;99.90
23729;DHT22;12045;60.214;24.724;2023-08-21T03:33:06;14.30;99.90
23729;DHT22;12045;60.214;24.724;2023-08-21T03:35:35;14.40;99.90
23729;DHT22;12045;60.214;24.724;2023-08-21T03:38:03;14.50;99.90
23729;DHT22;12045;60.214;24.724;2023-08-21T03:40:31;14.50;99.90
23729;DHT22;12045;60.214;24.724;2023-08-21T03:42:58;14.50;99.90
23729;DHT22;12045;60.214;24.724;2023-08-21T03:45:26;14.50;99.90
23729;DHT22;12045;60.214;24.724;2023-08-21T03:47:53;14.40;99.90
23729;DHT22;12045;60.214;24.724;2023-08-21T03:50:20;14.40;99.90
23729;DHT22;12045;60.214;24.724;2023-08-21T03:52:48;14.50;99.90
23729;DHT22;12045;60.214;24.724;2023-08-21T03:55:15;14.50;99.90
23729;DHT22;12045;60.214;24.724;2023-08-21T03:57:43;14.50;99.90
23729;DHT22;12045;60.214;24.724;2023-08-21T04:00:11;14.60;99.90
23729;DHT22;12045;60.214;24.724;2023-08-21T04:02:39;14.60;99.90
23729;DHT22;12045;60.214;24.724;2023-08-21T04:05:07;14.60;99.90
23729;DHT22;12045;60.214;24.724;2023-08-21T04:07:34;14.60;99.90
23729;DHT22;12045;60.214;24.724;2023-08-21T04:10:02;14.70;99.90
23729;DHT22;12045;60.214;24.724;2023-08-21T04:12:30;14.70;99.90
23729;DHT22;12045;60.214;24.724;2023-08-21T04:14:57;14.70;99.90
23729;DHT22;12045;60.214;24.724;2023-08-21T04:17:25;14.80;99.90
23729;DHT22;12045;60.214;24.724;2023-08-21T04:19:52;14.80;99.90
23729;DHT22;12045;60.214;24.724;2023-08-21T04:22:20;14.80;99.90
23729;DHT22;12045;60.214;24.724;2023-08-21T04:24:48;14.70;99.90
23729;DHT22;12045;60.214;24.724;2023-08-21T04:27:15;14.60;99.90
23729;DHT22;12045;60.214;24.724;2023-08-21T04:29:43;14.60;99.90
23729;DHT22;12045;60.214;24.724;2023-08-21T04:32:10;14.70;99.90
23729;DHT22;12045;60.214;24.724;2023-08-21T04:34:38;14.70;99.90
23729;DHT22;12045;60.214;24.724;2023-08-21T04:37:06;14.80;99.90
23729;DHT22;12045;60.214;24.724;2023-08-21T04:39:33;14.80;99.90
23729;DHT22;12045;60.214;24.724;2023-08-21T04:42:02;14.90;99.90
23729;DHT22;12045;60.214;24.724;2023-08-21T04:44:30;15.00;99.90
23729;DHT22;12045;60.214;24.724;2023-08-21T04:46:57;15.00;99.90
23729;DHT22;12045;60.214;24.724;2023-08-21T04:49:45;15.10;99.90
23729;DHT22;12045;60.214;24.724;2023-08-21T04:52:12;15.10;99.90
23729;DHT22;12045;60.214;24.724;2023-08-21T04:54:40;15.20;99.90
23729;DHT22;12045;60.214;24.724;2023-08-21T04:57:08;15.20;99.90
23729;DHT22;12045;60.214;24.724;2023-08-21T04:59:36;15.20;99.90
23729;DHT22;12045;60.214;24.724;2023-08-21T05:02:04;15.30;99.90
23729;DHT22;12045;60.214;24.724;2023-08-21T05:04:32;15.30;99.90
23729;DHT22;12045;60.214;24.724;2023-08-21T05:07:00;15.40;99.90
23729;DHT22;12045;60.214;24.724;2023-08-21T05:09:27;15.40;99.90
23729;DHT22;12045;60.214;24.724;2023-08-21T05:11:55;15.50;99.90
23729;DHT22;12045;60.214;24.724;2023-08-21T05:14:23;15.50;99.90
23729;DHT22;12045;60.214;24.724;2023-08-21T05:16:51;15.60;99.90
23729;DHT22;12045;60.214;24.724;2023-08-21T05:19:20;15.60;99.90
23729;DHT22;12045;60.214;24.724;2023-08-21T05:21:47;15.60;99.90
23729;DHT22;12045;60.214;24.724;2023-08-21T05:24:15;15.60;99.90
23729;DHT22;12045;60.214;24.724;2023-08-21T05:26:43;15.70;99.90
23729;DHT22;12045;60.214;24.724;2023-08-21T05:29:11;15.70;99.90
23729;DHT22;12045;60.214;24.724;2023-08-21T05:31:38;15.70;99.90
23729;DHT22;12045;60.214;24.724;2023-08-21T05:34:07;15.70;99.90
23729;DHT22;12045;60.214;24.724;2023-08-21T05:36:35;15.70;99.90
23729;DHT22;12045;60.214;24.724;2023-08-21T05:39:04;15.70;99.90
23729;DHT22;12045;60.214;24.724;2023-08-21T05:41:33;15.80;99.90
23729;DHT22;12045;60.214;24.724;2023-08-21T05:44:00;15.80;99.90
23729;DHT22;12045;60.214;24.724;2023-08-21T05:46:28;15.80;99.90
23729;DHT22;12045;60.214;24.724;2023-08-21T05:48:56;15.90;99.90
23729;DHT22;12045;60.214;24.724;2023-08-21T05:51:23;16.00;99.90
23729;DHT22;12045;60.214;24.724;2023-08-21T05:53:51;16.00;99.90
23729;DHT22;12045;60.214;24.724;2023-08-21T05:56:19;16.00;99.90
23729;DHT22;12045;60.214;24.724;2023-08-21T05:58:46;16.00;99.90
23729;DHT22;12045;60.214;24.724;2023-08-21T06:01:14;16.00;99.90
23729;DHT22;12045;60.214;24.724;2023-08-21T06:03:43;16.00;99.90
23729;DHT22;12045;60.214;24.724;2023-08-21T06:06:11;16.00;99.90
23729;DHT22;12045;60.214;24.724;2023-08-21T06:08:38;16.00;99.90
23729;DHT22;12045;60.214;24.724;2023-08-21T06:11:06;16.10;99.90
23729;DHT22;12045;60.214;24.724;2023-08-21T06:13:33;16.10;99.90
23729;DHT22;12045;60.214;24.724;2023-08-21T06:16:01;16.20;99.90
23729;DHT22;12045;60.214;24.724;2023-08-21T06:18:29;16.20;99.90
23729;DHT22;12045;60.214;24.724;2023-08-21T06:20:58;16.20;99.90
23729;DHT22;12045;60.214;24.724;2023-08-21T06:23:26;16.30;99.90
23729;DHT22;12045;60.214;24.724;2023-08-21T06:25:53;16.30;99.90
23729;DHT22;12045;60.214;24.724;2023-08-21T06:28:21;16.40;99.90
23729;DHT22;12045;60.214;24.724;2023-08-21T06:30:56;16.40;99.90
23729;DHT22;12045;60.214;24.724;2023-08-21T06:33:25;16.50;99.90
23729;DHT22;12045;60.214;24.724;2023-08-21T06:35:54;16.60;99.90
23729;DHT22;12045;60.214;24.724;2023-08-21T06:38:21;16.60;99.90
23729;DHT22;12045;60.214;24.724;2023-08-21T06:40:49;16.60;99.90
23729;DHT22;12045;60.214;24.724;2023-08-21T06:43:18;16.70;99.90
23729;DHT22;12045;60.214;24.724;2023-08-21T06:45:46;16.70;99.90
23729;DHT22;12045;60.214;24.724;2023-08-21T06:48:13;16.80;99.90
23729;DHT22;12045;60.214;24.724;2023-08-21T06:50:41;16.80;99.90
23729;DHT22;12045;60.214;24.724;2023-08-21T06:53:11;16.80;99.90
23729;DHT22;12045;60.214;24.724;2023-08-21T06:55:39;16.80;99.90
23729;DHT22;12045;60.214;24.724;2023-08-21T06:58:07;16.90;99.90
23729;DHT22;12045;60.214;24.724;2023-08-21T07:00:36;16.90;99.90
23729;DHT22;12045;60.214;24.724;2023-08-21T07:03:04;17.00;99.90
23729;DHT22;12045;60.214;24.724;2023-08-21T07:05:39;17.10;99.90
23729;DHT22;12045;60.214;24.724;2023-08-21T07:08:07;17.10;99.90
23729;DHT22;12045;60.214;24.724;2023-08-21T07:10:37;17.10;99.90
23729;DHT22;12045;60.214;24.724;2023-08-21T07:13:06;17.10;99.90
23729;DHT22;12045;60.214;24.724;2023-08-21T07:15:35;17.20;99.90
23729;DHT22;12045;60.214;24.724;2023-08-21T07:18:03;17.20;99.90
23729;DHT22;12045;60.214;24.724;2023-08-21T07:20:31;17.30;99.90
23729;DHT22;12045;60.214;24.724;2023-08-21T07:23:02;17.40;99.90
23729;DHT22;12045;60.214;24.724;2023-08-21T07:25:31;17.40;99.90
23729;DHT22;12045;60.214;24.724;2023-08-21T07:27:59;17.50;99.90
23729;DHT22;12045;60.214;24.724;2023-08-21T07:30:29;17.60;99.90
23729;DHT22;12045;60.214;24.724;2023-08-21T07:32:57;17.60;99.90
23729;DHT22;12045;60.214;24.724;2023-08-21T07:35:25;17.60;99.90
23729;DHT22;12045;60.214;24.724;2023-08-21T07:37:53;17.60;99.90
23729;DHT22;12045;60.214;24.724;2023-08-21T07:40:20;17.70;99.90
23729;DHT22;12045;60.214;24.724;2023-08-21T07:42:48;17.80;99.90
23729;DHT22;12045;60.214;24.724;2023-08-21T07:45:16;17.80;99.90
23729;DHT22;12045;60.214;24.724;2023-08-21T07:47:43;17.90;99.90
23729;DHT22;12045;60.214;24.724;2023-08-21T07:50:24;17.90;99.90
23729;DHT22;12045;60.214;24.724;2023-08-21T07:52:51;18.00;99.90
23729;DHT22;12045;60.214;24.724;2023-08-21T07:55:20;18.00;99.90
23729;DHT22;12045;60.214;24.724;2023-08-21T07:57:50;18.10;99.90
23729;DHT22;12045;60.214;24.724;2023-08-21T08:00:18;18.10;99.90
23729;DHT22;12045;60.214;24.724;2023-08-21T08:02:47;18.20;99.90
23729;DHT22;12045;60.214;24.724;2023-08-21T08:05:15;18.20;99.90
23729;DHT22;12045;60.214;24.724;2023-08-21T08:07:42;18.30;99.90
23729;DHT22;12045;60.214;24.724;2023-08-21T08:10:10;18.40;99.90
23729;DHT22;12045;60.214;24.724;2023-08-21T08:12:42;18.40;99.90
23729;DHT22;12045;60.214;24.724;2023-08-21T08:15:11;18.50;99.90
23729;DHT22;12045;60.214;24.724;2023-08-21T08:17:38;18.60;99.90
23729;DHT22;12045;60.214;24.724;2023-08-21T08:20:06;18.70;99.90
23729;DHT22;12045;60.214;24.724;2023-08-21T08:22:34;18.80;99.90
23729;DHT22;12045;60.214;24.724;2023-08-21T08:25:04;18.90;99.90
23729;DHT22;12045;60.214;24.724;2023-08-21T08:27:33;19.00;99.90
23729;DHT22;12045;60.214;24.724;2023-08-21T08:30:03;19.20;99.90
23729;DHT22;12045;60.214;24.724;2023-08-21T08:32:30;19.30;99.90
23729;DHT22;12045;60.214;24.724;2023-08-21T08:34:59;19.50;99.90
23729;DHT22;12045;60.214;24.724;2023-08-21T08:37:27;19.70;99.90
23729;DHT22;12045;60.214;24.724;2023-08-21T08:39:56;19.90;99.90
23729;DHT22;12045;60.214;24.724;2023-08-21T08:42:24;20.10;99.90
23729;DHT22;12045;60.214;24.724;2023-08-21T08:44:54;20.10;99.90
23729;DHT22;12045;60.214;24.724;2023-08-21T08:47:22;20.20;99.90
23729;DHT22;12045;60.214;24.724;2023-08-21T08:49:51;20.20;99.90
23729;DHT22;12045;60.214;24.724;2023-08-21T08:52:22;20.20;99.90
23729;DHT22;12045;60.214;24.724;2023-08-21T08:54:53;20.30;99.90
23729;DHT22;12045;60.214;24.724;2023-08-21T08:57:22;20.30;99.90
23729;DHT22;12045;60.214;24.724;2023-08-21T08:59:49;20.40;99.90
23729;DHT22;12045;60.214;24.724;2023-08-21T09:02:18;20.50;99.90
23729;DHT22;12045;60.214;24.724;2023-08-21T09:04:47;20.50;99.90
23729;DHT22;12045;60.214;24.724;2023-08-21T09:07:18;20.60;99.90
23729;DHT22;12045;60.214;24.724;2023-08-21T09:09:49;20.70;99.90
23729;DHT22;12045;60.214;24.724;2023-08-21T09:12:20;20.70;99.90
23729;DHT22;12045;60.214;24.724;2023-08-21T09:14:48;20.80;99.90
23729;DHT22;12045;60.214;24.724;2023-08-21T09:17:16;20.80;99.90
23729;DHT22;12045;60.214;24.724;2023-08-21T09:19:44;20.80;99.90
23729;DHT22;12045;60.214;24.724;2023-08-21T09:22:16;20.80;99.90
23729;DHT22;12045;60.214;24.724;2023-08-21T09:25:06;20.80;99.90
23729;DHT22;12045;60.214;24.724;2023-08-21T09:27:36;20.90;99.90
23729;DHT22;12045;60.214;24.724;2023-08-21T09:30:12;21.00;99.90
23729;DHT22;12045;60.214;24.724;2023-08-21T09:32:55;21.20;99.90
23729;DHT22;12045;60.214;24.724;2023-08-21T09:35:23;21.20;99.90
23729;DHT22;12045;60.214;24.724;2023-08-21T09:37:53;21.40;99.90
23729;DHT22;12045;60.214;24.724;2023-08-21T09:40:23;21.60;99.90
23729;DHT22;12045;60.214;24.724;2023-08-21T09:42:54;21.70;99.90
23729;DHT22;12045;60.214;24.724;2023-08-21T09:45:23;21.80;99.90
23729;DHT22;12045;60.214;24.724;2023-08-21T09:47:52;21.90;99.90
23729;DHT22;12045;60.214;24.724;2023-08-21T09:50:23;22.10;99.90
23729;DHT22;12045;60.214;24.724;2023-08-21T09:52:51;22.30;99.90
23729;DHT22;12045;60.214;24.724;2023-08-21T09:55:26;22.40;99.90
23729;DHT22;12045;60.214;24.724;2023-08-21T09:58:01;22.60;99.90
23729;DHT22;12045;60.214;24.724;2023-08-21T10:00:31;22.70;99.90
23729;DHT22;12045;60.214;24.724;2023-08-21T10:03:01;22.80;99.90
23729;DHT22;12045;60.214;24.724;2023-08-21T10:05:33;23.00;99.90
23729;DHT22;12045;60.214;24.724;2023-08-21T10:08:05;23.20;99.90
23729;DHT22;12045;60.214;24.724;2023-08-21T10:10:36;23.60;99.90
23729;DHT22;12045;60.214;24.724;2023-08-21T10:13:05;23.70;99.90
23729;DHT22;12045;60.214;24.724;2023-08-21T10:15:35;23.90;99.90
23729;DHT22;12045;60.214;24.724;2023-08-21T10:18:22;23.90;99.90
23729;DHT22;12045;60.214;24.724;2023-08-21T10:23:40;23.50;99.90
23729;DHT22;12045;60.214;24.724;2023-08-21T10:26:12;23.30;99.90
23729;DHT22;12045;60.214;24.724;2023-08-21T10:29:02;23.10;99.90
23729;DHT22;12045;60.214;24.724;2023-08-21T10:31:36;23.00;99.90
23729;DHT22;12045;60.214;24.724;2023-08-21T10:34:13;22.90;99.90
23729;DHT22;12045;60.214;24.724;2023-08-21T10:39:16;22.70;99.90
23729;DHT22;12045;60.214;24.724;2023-08-21T10:41:57;22.70;99.90
23729;DHT22;12045;60.214;24.724;2023-08-21T10:47:30;22.70;99.90
23729;DHT22;12045;60.214;24.724;2023-08-21T10:50:00;22.60;99.90
23729;DHT22;12045;60.214;24.724;2023-08-21T10:52:36;22.50;99.90
23729;DHT22;12045;60.214;24.724;2023-08-21T10:55:06;22.40;99.90
23729;DHT22;12045;60.214;24.724;2023-08-21T10:57:34;22.40;99.90
23729;DHT22;12045;60.214;24.724;2023-08-21T11:07:59;23.30;99.90
23729;DHT22;12045;60.214;24.724;2023-08-21T11:10:31;23.40;99.90
23729;DHT22;12045;60.214;24.724;2023-08-21T11:13:07;23.40;99.90
23729;DHT22;12045;60.214;24.724;2023-08-21T11:15:39;23.30;99.90
23729;DHT22;12045;60.214;24.724;2023-08-21T11:18:07;23.20;99.90
23729;DHT22;12045;60.214;24.724;2023-08-21T11:20:35;23.00;99.90
23729;DHT22;12045;60.214;24.724;2023-08-21T11:23:06;23.00;99.90
23729;DHT22;12045;60.214;24.724;2023-08-21T11:25:39;22.90;99.90
23729;DHT22;12045;60.214;24.724;2023-08-21T11:28:07;23.10;99.90
23729;DHT22;12045;60.214;24.724;2023-08-21T11:30:37;23.30;99.90
23729;DHT22;12045;60.214;24.724;2023-08-21T11:33:12;23.30;99.90
23729;DHT22;12045;60.214;24.724;2023-08-21T11:35:41;23.20;99.90
23729;DHT22;12045;60.214;24.724;2023-08-21T11:38:21;23.00;99.90
23729;DHT22;12045;60.214;24.724;2023-08-21T11:41:01;22.80;99.90
23729;DHT22;12045;60.214;24.724;2023-08-21T11:43:41;22.90;99.90
23729;DHT22;12045;60.214;24.724;2023-08-21T11:46:10;23.00;99.90
23729;DHT22;12045;60.214;24.724;2023-08-21T11:48:41;23.00;99.90
23729;DHT22;12045;60.214;24.724;2023-08-21T11:51:08;22.90;99.90
23729;DHT22;12045;60.214;24.724;2023-08-21T11:53:38;22.70;99.90
23729;DHT22;12045;60.214;24.724;2023-08-21T11:56:13;22.70;99.90
23729;DHT22;12045;60.214;24.724;2023-08-21T11:58:46;22.60;99.90
23729;DHT22;12045;60.214;24.724;2023-08-21T12:01:17;22.30;99.90
23729;DHT22;12045;60.214;24.724;2023-08-21T12:03:45;22.20;99.90
23729;DHT22;12045;60.214;24.724;2023-08-21T12:06:13;22.20;99.90
23729;DHT22;12045;60.214;24.724;2023-08-21T12:08:41;22.20;99.90
23729;DHT22;12045;60.214;24.724;2023-08-21T12:11:09;22.30;99.90
23729;DHT22;12045;60.214;24.724;2023-08-21T12:13:37;22.20;99.90
23729;DHT22;12045;60.214;24.724;2023-08-21T12:16:04;22.20;99.90
23729;DHT22;12045;60.214;24.724;2023-08-21T12:18:32;22.20;99.90
23729;DHT22;12045;60.214;24.724;2023-08-21T12:21:00;22.20;99.90
23729;DHT22;12045;60.214;24.724;2023-08-21T12:23:28;22.20;99.90
23729;DHT22;12045;60.214;24.724;2023-08-21T12:25:55;22.10;99.90
23729;DHT22;12045;60.214;24.724;2023-08-21T12:28:23;22.00;99.90
23729;DHT22;12045;60.214;24.724;2023-08-21T12:30:50;22.00;99.90
23729;DHT22;12045;60.214;24.724;2023-08-21T12:33:18;22.00;99.90
23729;DHT22;12045;60.214;24.724;2023-08-21T12:35:50;22.00;99.90
23729;DHT22;12045;60.214;24.724;2023-08-21T12:38:18;22.00;99.90
23729;DHT22;12045;60.214;24.724;2023-08-21T12:40:47;21.90;99.90
23729;DHT22;12045;60.214;24.724;2023-08-21T12:43:15;21.90;99.90
23729;DHT22;12045;60.214;24.724;2023-08-21T12:45:43;21.90;99.90
23729;DHT22;12045;60.214;24.724;2023-08-21T12:48:11;21.90;99.90
23729;DHT22;12045;60.214;24.724;2023-08-21T12:50:39;21.80;99.90
23729;DHT22;12045;60.214;24.724;2023-08-21T12:53:06;21.80;99.90
23729;DHT22;12045;60.214;24.724;2023-08-21T12:55:34;21.80;99.90
23729;DHT22;12045;60.214;24.724;2023-08-21T12:58:01;21.80;99.90
23729;DHT22;12045;60.214;24.724;2023-08-21T13:00:29;21.70;99.90
23729;DHT22;12045;60.214;24.724;2023-08-21T13:02:56;21.60;99.90
23729;DHT22;12045;60.214;24.724;2023-08-21T13:05:24;21.50;99.90
23729;DHT22;12045;60.214;24.724;2023-08-21T13:07:52;21.50;99.90
23729;DHT22;12045;60.214;24.724;2023-08-21T13:10:20;21.40;99.90
23729;DHT22;12045;60.214;24.724;2023-08-21T13:12:47;21.40;99.90
23729;DHT22;12045;60.214;24.724;2023-08-21T13:15:16;21.30;99.90
23729;DHT22;12045;60.214;24.724;2023-08-21T13:17:43;21.30;99.90
23729;DHT22;12045;60.214;24.724;2023-08-21T13:20:11;21.30;99.90
23729;DHT22;12045;60.214;24.724;2023-08-21T13:22:51;21.20;99.90
23729;DHT22;12045;60.214;24.724;2023-08-21T13:25:21;21.10;99.90
23729;DHT22;12045;60.214;24.724;2023-08-21T13:27:51;21.20;99.90
23729;DHT22;12045;60.214;24.724;2023-08-21T13:30:19;21.20;99.90
23729;DHT22;12045;60.214;24.724;2023-08-21T13:32:47;21.20;99.90
23729;DHT22;12045;60.214;24.724;2023-08-21T13:35:15;21.20;99.90
23729;DHT22;12045;60.214;24.724;2023-08-21T13:37:44;21.20;99.90
23729;DHT22;12045;60.214;24.724;2023-08-21T13:40:11;21.30;99.90
23729;DHT22;12045;60.214;24.724;2023-08-21T13:42:44;21.30;99.90
23729;DHT22;12045;60.214;24.724;2023-08-21T13:45:13;21.30;99.90
23729;DHT22;12045;60.214;24.724;2023-08-21T13:47:46;21.40;99.90
23729;DHT22;12045;60.214;24.724;2023-08-21T13:50:18;21.30;99.90
23729;DHT22;12045;60.214;24.724;2023-08-21T13:52:46;21.30;99.90
23729;DHT22;12045;60.214;24.724;2023-08-21T13:55:15;21.20;99.90
23729;DHT22;12045;60.214;24.724;2023-08-21T13:57:44;21.20;99.90
23729;DHT22;12045;60.214;24.724;2023-08-21T14:00:12;21.20;99.90
23729;DHT22;12045;60.214;24.724;2023-08-21T14:02:41;21.10;99.90
23729;DHT22;12045;60.214;24.724;2023-08-21T14:05:10;21.10;99.90
23729;DHT22;12045;60.214;24.724;2023-08-21T14:07:38;21.00;99.90
23729;DHT22;12045;60.214;24.724;2023-08-21T14:10:08;20.90;99.90
23729;DHT22;12045;60.214;24.724;2023-08-21T14:12:36;20.90;99.90
23729;DHT22;12045;60.214;24.724;2023-08-21T14:15:09;20.90;99.90
23729;DHT22;12045;60.214;24.724;2023-08-21T14:17:36;20.80;99.90
23729;DHT22;12045;60.214;24.724;2023-08-21T14:20:05;20.80;99.90
23729;DHT22;12045;60.214;24.724;2023-08-21T14:22:34;20.60;99.90
23729;DHT22;12045;60.214;24.724;2023-08-21T14:25:02;20.60;99.90
23729;DHT22;12045;60.214;24.724;2023-08-21T14:27:33;20.50;99.90
23729;DHT22;12045;60.214;24.724;2023-08-21T14:30:01;20.50;99.90
23729;DHT22;12045;60.214;24.724;2023-08-21T14:32:29;20.50;99.90
23729;DHT22;12045;60.214;24.724;2023-08-21T14:34:56;20.50;99.90
23729;DHT22;12045;60.214;24.724;2023-08-21T14:37:24;20.50;99.90
23729;DHT22;12045;60.214;24.724;2023-08-21T14:39:51;20.50;99.90
23729;DHT22;12045;60.214;24.724;2023-08-21T14:42:19;20.50;99.90
23729;DHT22;12045;60.214;24.724;2023-08-21T14:44:47;20.50;99.90
23729;DHT22;12045;60.214;24.724;2023-08-21T14:47:14;20.50;99.90
23729;DHT22;12045;60.214;24.724;2023-08-21T14:49:41;20.50;99.90
23729;DHT22;12045;60.214;24.724;2023-08-21T14:52:09;20.50;99.90
23729;DHT22;12045;60.214;24.724;2023-08-21T14:54:36;20.50;99.90
23729;DHT22;12045;60.214;24.724;2023-08-21T14:57:04;20.50;99.90
23729;DHT22;12045;60.214;24.724;2023-08-21T14:59:32;20.50;99.90
23729;DHT22;12045;60.214;24.724;2023-08-21T15:01:59;20.50;99.90
23729;DHT22;12045;60.214;24.724;2023-08-21T15:04:27;20.50;99.90
23729;DHT22;12045;60.214;24.724;2023-08-21T15:06:55;20.50;99.90
23729;DHT22;12045;60.214;24.724;2023-08-21T15:09:22;20.40;99.90
23729;DHT22;12045;60.214;24.724;2023-08-21T15:11:50;20.40;99.90
23729;DHT22;12045;60.214;24.724;2023-08-21T15:14:17;20.30;99.90
23729;DHT22;12045;60.214;24.724;2023-08-21T15:16:45;20.30;99.90
23729;DHT22;12045;60.214;24.724;2023-08-21T15:19:12;20.30;99.90
23729;DHT22;12045;60.214;24.724;2023-08-21T15:21:40;20.30;99.90
23729;DHT22;12045;60.214;24.724;2023-08-21T15:24:09;20.30;99.90
23729;DHT22;12045;60.214;24.724;2023-08-21T15:26:36;20.30;99.90
23729;DHT22;12045;60.214;24.724;2023-08-21T15:29:04;20.30;99.90
23729;DHT22;12045;60.214;24.724;2023-08-21T15:31:31;20.20;99.90
23729;DHT22;12045;60.214;24.724;2023-08-21T15:33:59;20.20;99.90
23729;DHT22;12045;60.214;24.724;2023-08-21T15:36:27;20.30;99.90
23729;DHT22;12045;60.214;24.724;2023-08-21T15:38:55;20.30;99.90
23729;DHT22;12045;60.214;24.724;2023-08-21T15:41:23;20.30;99.90
23729;DHT22;12045;60.214;24.724;2023-08-21T15:43:51;20.30;99.90
23729;DHT22;12045;60.214;24.724;2023-08-21T15:46:19;20.20;99.90
23729;DHT22;12045;60.214;24.724;2023-08-21T15:48:46;20.20;99.90